sensor_id;sensor_type;location;lat;lon;timestamp;P1;durP1;ratioP1;P2;durP2;ratioP2
66619;SDS011;53484;51.356;6.732;2022-11-14T00:00:03;19.73;;;10.60;;
66619;SDS011;53484;51.356;6.732;2022-11-14T00:02:30;25.98;;;12.90;;
66619;SDS011;53484;51.356;6.732;2022-11-14T00:04:56;28.27;;;15.48;;
66619;SDS011;53484;51.356;6.732;2022-11-14T00:07:24;30.27;;;14.85;;
66619;SDS011;53484;51.356;6.732;2022-11-14T00:09:50;28.73;;;14.20;;
66619;SDS011;53484;51.356;6.732;2022-11-14T00:12:16;25.60;;;13.73;;
66619;SDS011;53484;51.356;6.732;2022-11-14T00:14:43;24.13;;;13.40;;
66619;SDS011;53484;51.356;6.732;2022-11-14T00:17:09;26.38;;;13.15;;
66619;SDS011;53484;51.356;6.732;2022-11-14T00:19:35;23.35;;;12.75;;
66619;SDS011;53484;51.356;6.732;2022-11-14T00:22:02;25.63;;;13.13;;
66619;SDS011;53484;51.356;6.732;2022-11-14T00:24:29;26.63;;;13.40;;
66619;SDS011;53484;51.356;6.732;2022-11-14T00:26:56;26.30;;;12.73;;
66619;SDS011;53484;51.356;6.732;2022-11-14T00:29:22;18.80;;;11.13;;
66619;SDS011;53484;51.356;6.732;2022-11-14T00:31:49;25.95;;;12.38;;
66619;SDS011;53484;51.356;6.732;2022-11-14T00:34:15;23.00;;;11.75;;
66619;SDS011;53484;51.356;6.732;2022-11-14T00:36:41;21.70;;;11.60;;
66619;SDS011;53484;51.356;6.732;2022-11-14T00:39:08;19.00;;;10.18;;
66619;SDS011;53484;51.356;6.732;2022-11-14T00:41:38;22.60;;;11.30;;
66619;SDS011;53484;51.356;6.732;2022-11-14T00:44:04;18.60;;;11.27;;
66619;SDS011;53484;51.356;6.732;2022-11-14T00:46:30;20.65;;;11.25;;
66619;SDS011;53484;51.356;6.732;2022-11-14T00:48:57;17.93;;;10.30;;
66619;SDS011;53484;51.356;6.732;2022-11-14T00:51:23;23.15;;;11.27;;
66619;SDS011;53484;51.356;6.732;2022-11-14T00:53:49;23.83;;;10.75;;
66619;SDS011;53484;51.356;6.732;2022-11-14T00:56:15;23.98;;;10.18;;
66619;SDS011;53484;51.356;6.732;2022-11-14T00:58:43;20.55;;;10.05;;
66619;SDS011;53484;51.356;6.732;2022-11-14T01:01:09;17.00;;;9.00;;
66619;SDS011;53484;51.356;6.732;2022-11-14T01:03:36;18.15;;;9.48;;
66619;SDS011;53484;51.356;6.732;2022-11-14T01:06:03;17.55;;;8.70;;
66619;SDS011;53484;51.356;6.732;2022-11-14T01:08:30;18.45;;;9.38;;
66619;SDS011;53484;51.356;6.732;2022-11-14T01:10:56;15.93;;;8.85;;
66619;SDS011;53484;51.356;6.732;2022-11-14T01:13:23;19.27;;;9.40;;
66619;SDS011;53484;51.356;6.732;2022-11-14T01:15:51;16.85;;;8.88;;
66619;SDS011;53484;51.356;6.732;2022-11-14T01:18:19;15.32;;;8.77;;
66619;SDS011;53484;51.356;6.732;2022-11-14T01:20:46;15.55;;;8.27;;
66619;SDS011;53484;51.356;6.732;2022-11-14T01:23:13;17.08;;;8.20;;
66619;SDS011;53484;51.356;6.732;2022-11-14T01:25:40;15.80;;;8.30;;
66619;SDS011;53484;51.356;6.732;2022-11-14T01:28:07;15.55;;;8.02;;
66619;SDS011;53484;51.356;6.732;2022-11-14T01:30:33;14.18;;;8.32;;
66619;SDS011;53484;51.356;6.732;2022-11-14T01:33:01;13.85;;;7.90;;
66619;SDS011;53484;51.356;6.732;2022-11-14T01:35:27;15.85;;;8.15;;
66619;SDS011;53484;51.356;6.732;2022-11-14T01:37:54;14.90;;;8.47;;
66619;SDS011;53484;51.356;6.732;2022-11-14T01:40:20;16.77;;;8.10;;
66619;SDS011;53484;51.356;6.732;2022-11-14T01:45:46;13.23;;;7.97;;
66619;SDS011;53484;51.356;6.732;2022-11-14T01:48:14;16.70;;;8.73;;
66619;SDS011;53484;51.356;6.732;2022-11-14T01:50:43;17.87;;;8.60;;
66619;SDS011;53484;51.356;6.732;2022-11-14T01:53:09;15.07;;;8.27;;
66619;SDS011;53484;51.356;6.732;2022-11-14T01:55:35;14.60;;;8.40;;
66619;SDS011;53484;51.356;6.732;2022-11-14T01:58:02;17.42;;;8.10;;
66619;SDS011;53484;51.356;6.732;2022-11-14T02:00:28;13.93;;;7.63;;
66619;SDS011;53484;51.356;6.732;2022-11-14T02:02:54;13.23;;;7.50;;
66619;SDS011;53484;51.356;6.732;2022-11-14T02:05:22;15.38;;;8.32;;
66619;SDS011;53484;51.356;6.732;2022-11-14T02:07:49;15.25;;;8.25;;
66619;SDS011;53484;51.356;6.732;2022-11-14T02:10:16;15.43;;;8.07;;
66619;SDS011;53484;51.356;6.732;2022-11-14T02:12:42;15.30;;;8.48;;
66619;SDS011;53484;51.356;6.732;2022-11-14T02:15:09;13.43;;;7.30;;
66619;SDS011;53484;51.356;6.732;2022-11-14T02:17:35;13.15;;;7.18;;
66619;SDS011;53484;51.356;6.732;2022-11-14T02:20:08;13.82;;;8.02;;
66619;SDS011;53484;51.356;6.732;2022-11-14T02:22:40;13.20;;;8.00;;
66619;SDS011;53484;51.356;6.732;2022-11-14T02:25:07;17.60;;;8.45;;
66619;SDS011;53484;51.356;6.732;2022-11-14T02:27:34;13.77;;;7.77;;
66619;SDS011;53484;51.356;6.732;2022-11-14T02:30:02;14.38;;;7.97;;
66619;SDS011;53484;51.356;6.732;2022-11-14T02:32:28;14.93;;;7.57;;
66619;SDS011;53484;51.356;6.732;2022-11-14T02:34:55;14.38;;;7.75;;
66619;SDS011;53484;51.356;6.732;2022-11-14T02:37:22;12.52;;;7.05;;
66619;SDS011;53484;51.356;6.732;2022-11-14T02:39:48;12.50;;;6.87;;
66619;SDS011;53484;51.356;6.732;2022-11-14T02:42:15;13.75;;;7.10;;
66619;SDS011;53484;51.356;6.732;2022-11-14T02:44:41;13.18;;;7.47;;
66619;SDS011;53484;51.356;6.732;2022-11-14T02:47:08;15.77;;;7.63;;
66619;SDS011;53484;51.356;6.732;2022-11-14T02:49:34;13.05;;;7.13;;
66619;SDS011;53484;51.356;6.732;2022-11-14T02:52:00;12.40;;;6.73;;
66619;SDS011;53484;51.356;6.732;2022-11-14T02:54:28;13.57;;;7.18;;
66619;SDS011;53484;51.356;6.732;2022-11-14T02:56:54;16.83;;;7.47;;
66619;SDS011;53484;51.356;6.732;2022-11-14T02:59:20;14.93;;;7.65;;
66619;SDS011;53484;51.356;6.732;2022-11-14T03:01:47;14.20;;;7.60;;
66619;SDS011;53484;51.356;6.732;2022-11-14T03:04:13;16.37;;;8.73;;
66619;SDS011;53484;51.356;6.732;2022-11-14T03:06:39;20.17;;;8.73;;
66619;SDS011;53484;51.356;6.732;2022-11-14T03:09:05;17.77;;;9.32;;
66619;SDS011;53484;51.356;6.732;2022-11-14T03:11:33;16.02;;;8.13;;
66619;SDS011;53484;51.356;6.732;2022-11-14T03:13:59;16.85;;;7.93;;
66619;SDS011;53484;51.356;6.732;2022-11-14T03:16:26;17.73;;;8.03;;
66619;SDS011;53484;51.356;6.732;2022-11-14T03:18:52;13.77;;;8.18;;
66619;SDS011;53484;51.356;6.732;2022-11-14T03:21:19;14.32;;;7.72;;
66619;SDS011;53484;51.356;6.732;2022-11-14T03:23:46;11.15;;;7.00;;
66619;SDS011;53484;51.356;6.732;2022-11-14T03:26:13;15.50;;;7.72;;
66619;SDS011;53484;51.356;6.732;2022-11-14T03:28:41;13.57;;;7.13;;
66619;SDS011;53484;51.356;6.732;2022-11-14T03:31:08;15.38;;;7.85;;
66619;SDS011;53484;51.356;6.732;2022-11-14T03:33:35;14.13;;;7.90;;
66619;SDS011;53484;51.356;6.732;2022-11-14T03:36:01;15.00;;;7.40;;
66619;SDS011;53484;51.356;6.732;2022-11-14T03:38:28;13.85;;;7.05;;
66619;SDS011;53484;51.356;6.732;2022-11-14T03:40:56;12.83;;;7.20;;
66619;SDS011;53484;51.356;6.732;2022-11-14T03:43:22;14.05;;;7.82;;
66619;SDS011;53484;51.356;6.732;2022-11-14T03:45:50;14.73;;;7.88;;
66619;SDS011;53484;51.356;6.732;2022-11-14T03:48:16;12.23;;;6.45;;
66619;SDS011;53484;51.356;6.732;2022-11-14T03:50:42;13.80;;;8.13;;
66619;SDS011;53484;51.356;6.732;2022-11-14T03:53:09;15.30;;;7.10;;
66619;SDS011;53484;51.356;6.732;2022-11-14T03:55:35;12.95;;;6.57;;
66619;SDS011;53484;51.356;6.732;2022-11-14T03:58:02;16.15;;;8.13;;
66619;SDS011;53484;51.356;6.732;2022-11-14T04:00:29;11.95;;;6.90;;
66619;SDS011;53484;51.356;6.732;2022-11-14T04:02:56;12.32;;;6.80;;
66619;SDS011;53484;51.356;6.732;2022-11-14T04:05:23;12.37;;;6.60;;
66619;SDS011;53484;51.356;6.732;2022-11-14T04:07:49;11.93;;;6.97;;
66619;SDS011;53484;51.356;6.732;2022-11-14T04:10:15;12.23;;;7.03;;
66619;SDS011;53484;51.356;6.732;2022-11-14T04:12:45;14.85;;;6.82;;
66619;SDS011;53484;51.356;6.732;2022-11-14T04:15:12;12.60;;;7.55;;
66619;SDS011;53484;51.356;6.732;2022-11-14T04:17:38;14.13;;;7.00;;
66619;SDS011;53484;51.356;6.732;2022-11-14T04:20:06;13.32;;;6.53;;
66619;SDS011;53484;51.356;6.732;2022-11-14T04:22:32;11.38;;;6.80;;
66619;SDS011;53484;51.356;6.732;2022-11-14T04:24:59;11.63;;;6.47;;
66619;SDS011;53484;51.356;6.732;2022-11-14T04:27:25;13.32;;;6.70;;
66619;SDS011;53484;51.356;6.732;2022-11-14T04:29:51;10.83;;;6.60;;
66619;SDS011;53484;51.356;6.732;2022-11-14T04:32:17;14.55;;;6.80;;
66619;SDS011;53484;51.356;6.732;2022-11-14T04:34:44;12.00;;;6.80;;
66619;SDS011;53484;51.356;6.732;2022-11-14T04:37:11;11.55;;;6.28;;
66619;SDS011;53484;51.356;6.732;2022-11-14T04:39:38;11.50;;;5.90;;
66619;SDS011;53484;51.356;6.732;2022-11-14T04:42:04;11.97;;;6.53;;
66619;SDS011;53484;51.356;6.732;2022-11-14T04:44:30;11.77;;;5.10;;
66619;SDS011;53484;51.356;6.732;2022-11-14T04:46:57;11.07;;;5.80;;
66619;SDS011;53484;51.356;6.732;2022-11-14T04:49:23;10.07;;;5.70;;
66619;SDS011;53484;51.356;6.732;2022-11-14T04:51:49;11.73;;;5.25;;
66619;SDS011;53484;51.356;6.732;2022-11-14T04:54:17;8.87;;;4.90;;
66619;SDS011;53484;51.356;6.732;2022-11-14T04:56:43;10.55;;;4.88;;
66619;SDS011;53484;51.356;6.732;2022-11-14T04:59:09;8.50;;;4.63;;
66619;SDS011;53484;51.356;6.732;2022-11-14T05:01:36;8.95;;;4.60;;
66619;SDS011;53484;51.356;6.732;2022-11-14T05:04:02;10.68;;;5.93;;
66619;SDS011;53484;51.356;6.732;2022-11-14T05:06:28;8.37;;;4.43;;
66619;SDS011;53484;51.356;6.732;2022-11-14T05:08:55;9.50;;;5.22;;
66619;SDS011;53484;51.356;6.732;2022-11-14T05:11:22;10.35;;;5.30;;
66619;SDS011;53484;51.356;6.732;2022-11-14T05:13:49;8.85;;;4.80;;
66619;SDS011;53484;51.356;6.732;2022-11-14T05:16:15;8.70;;;4.57;;
66619;SDS011;53484;51.356;6.732;2022-11-14T05:18:41;8.73;;;4.40;;
66619;SDS011;53484;51.356;6.732;2022-11-14T05:21:09;8.48;;;4.32;;
66619;SDS011;53484;51.356;6.732;2022-11-14T05:23:36;9.18;;;5.03;;
66619;SDS011;53484;51.356;6.732;2022-11-14T05:26:02;8.93;;;4.80;;
66619;SDS011;53484;51.356;6.732;2022-11-14T05:28:30;10.10;;;4.90;;
66619;SDS011;53484;51.356;6.732;2022-11-14T05:31:00;7.40;;;4.10;;
66619;SDS011;53484;51.356;6.732;2022-11-14T05:33:27;8.82;;;4.68;;
66619;SDS011;53484;51.356;6.732;2022-11-14T05:35:53;9.13;;;4.47;;
66619;SDS011;53484;51.356;6.732;2022-11-14T05:38:19;8.32;;;4.25;;
66619;SDS011;53484;51.356;6.732;2022-11-14T05:40:46;10.18;;;5.05;;
66619;SDS011;53484;51.356;6.732;2022-11-14T05:43:12;9.20;;;4.27;;
66619;SDS011;53484;51.356;6.732;2022-11-14T05:45:39;10.32;;;4.80;;
66619;SDS011;53484;51.356;6.732;2022-11-14T05:48:06;9.80;;;4.97;;
66619;SDS011;53484;51.356;6.732;2022-11-14T05:50:32;8.80;;;4.78;;
66619;SDS011;53484;51.356;6.732;2022-11-14T05:52:58;8.88;;;4.78;;
66619;SDS011;53484;51.356;6.732;2022-11-14T05:55:24;9.47;;;4.37;;
66619;SDS011;53484;51.356;6.732;2022-11-14T05:57:52;12.07;;;5.00;;
66619;SDS011;53484;51.356;6.732;2022-11-14T06:00:18;8.23;;;4.65;;
66619;SDS011;53484;51.356;6.732;2022-11-14T06:02:46;11.98;;;5.90;;
66619;SDS011;53484;51.356;6.732;2022-11-14T06:05:12;9.75;;;4.85;;
66619;SDS011;53484;51.356;6.732;2022-11-14T06:07:38;9.80;;;4.77;;
66619;SDS011;53484;51.356;6.732;2022-11-14T06:10:05;8.13;;;4.45;;
66619;SDS011;53484;51.356;6.732;2022-11-14T06:12:32;8.48;;;4.78;;
66619;SDS011;53484;51.356;6.732;2022-11-14T06:14:59;9.55;;;4.53;;
66619;SDS011;53484;51.356;6.732;2022-11-14T06:17:26;10.10;;;5.28;;
66619;SDS011;53484;51.356;6.732;2022-11-14T06:19:53;9.37;;;4.97;;
66619;SDS011;53484;51.356;6.732;2022-11-14T06:22:20;10.95;;;5.03;;
66619;SDS011;53484;51.356;6.732;2022-11-14T06:24:46;9.18;;;5.45;;
66619;SDS011;53484;51.356;6.732;2022-11-14T06:27:12;9.50;;;4.85;;
66619;SDS011;53484;51.356;6.732;2022-11-14T06:29:38;10.23;;;5.35;;
66619;SDS011;53484;51.356;6.732;2022-11-14T06:32:05;13.13;;;5.53;;
66619;SDS011;53484;51.356;6.732;2022-11-14T06:34:31;13.02;;;6.00;;
66619;SDS011;53484;51.356;6.732;2022-11-14T06:36:59;10.95;;;5.40;;
66619;SDS011;53484;51.356;6.732;2022-11-14T06:39:25;9.82;;;5.57;;
66619;SDS011;53484;51.356;6.732;2022-11-14T06:41:51;11.77;;;5.50;;
66619;SDS011;53484;51.356;6.732;2022-11-14T06:44:18;11.43;;;5.33;;
66619;SDS011;53484;51.356;6.732;2022-11-14T06:46:44;9.75;;;5.82;;
66619;SDS011;53484;51.356;6.732;2022-11-14T06:49:10;10.45;;;5.32;;
66619;SDS011;53484;51.356;6.732;2022-11-14T06:51:37;13.65;;;6.25;;
66619;SDS011;53484;51.356;6.732;2022-11-14T06:54:04;10.05;;;5.10;;
66619;SDS011;53484;51.356;6.732;2022-11-14T06:56:31;11.87;;;5.23;;
66619;SDS011;53484;51.356;6.732;2022-11-14T06:58:57;10.23;;;5.80;;
66619;SDS011;53484;51.356;6.732;2022-11-14T07:01:24;11.80;;;5.60;;
66619;SDS011;53484;51.356;6.732;2022-11-14T07:03:50;9.50;;;5.30;;
66619;SDS011;53484;51.356;6.732;2022-11-14T07:06:18;10.48;;;5.28;;
66619;SDS011;53484;51.356;6.732;2022-11-14T07:08:45;11.87;;;5.77;;
66619;SDS011;53484;51.356;6.732;2022-11-14T07:11:13;11.98;;;5.75;;
66619;SDS011;53484;51.356;6.732;2022-11-14T07:13:46;15.30;;;7.20;;
66619;SDS011;53484;51.356;6.732;2022-11-14T07:16:13;15.57;;;6.82;;
66619;SDS011;53484;51.356;6.732;2022-11-14T07:18:39;12.35;;;6.45;;
66619;SDS011;53484;51.356;6.732;2022-11-14T07:21:05;16.73;;;6.97;;
66619;SDS011;53484;51.356;6.732;2022-11-14T07:23:32;12.93;;;6.32;;
66619;SDS011;53484;51.356;6.732;2022-11-14T07:25:59;13.85;;;6.65;;
66619;SDS011;53484;51.356;6.732;2022-11-14T07:28:27;12.05;;;6.20;;
66619;SDS011;53484;51.356;6.732;2022-11-14T07:30:54;12.20;;;6.45;;
66619;SDS011;53484;51.356;6.732;2022-11-14T07:33:20;13.47;;;7.53;;
66619;SDS011;53484;51.356;6.732;2022-11-14T07:35:46;13.02;;;6.60;;
66619;SDS011;53484;51.356;6.732;2022-11-14T07:38:13;14.75;;;6.70;;
66619;SDS011;53484;51.356;6.732;2022-11-14T07:40:39;13.43;;;6.53;;
66619;SDS011;53484;51.356;6.732;2022-11-14T07:43:05;14.00;;;7.75;;
66619;SDS011;53484;51.356;6.732;2022-11-14T07:45:34;17.87;;;8.47;;
66619;SDS011;53484;51.356;6.732;2022-11-14T07:48:00;12.55;;;7.07;;
66619;SDS011;53484;51.356;6.732;2022-11-14T07:50:27;13.45;;;6.97;;
66619;SDS011;53484;51.356;6.732;2022-11-14T07:52:54;13.20;;;6.90;;
66619;SDS011;53484;51.356;6.732;2022-11-14T07:55:21;14.38;;;7.40;;
66619;SDS011;53484;51.356;6.732;2022-11-14T07:57:50;12.97;;;7.23;;
66619;SDS011;53484;51.356;6.732;2022-11-14T08:00:17;16.33;;;7.82;;
66619;SDS011;53484;51.356;6.732;2022-11-14T08:02:45;12.63;;;7.18;;
66619;SDS011;53484;51.356;6.732;2022-11-14T08:05:12;13.82;;;7.38;;
66619;SDS011;53484;51.356;6.732;2022-11-14T08:07:39;15.48;;;8.48;;
66619;SDS011;53484;51.356;6.732;2022-11-14T08:10:06;16.13;;;7.97;;
66619;SDS011;53484;51.356;6.732;2022-11-14T08:12:32;15.45;;;8.07;;
66619;SDS011;53484;51.356;6.732;2022-11-14T08:14:58;16.20;;;8.93;;
66619;SDS011;53484;51.356;6.732;2022-11-14T08:17:25;16.27;;;8.73;;
66619;SDS011;53484;51.356;6.732;2022-11-14T08:19:53;19.65;;;9.27;;
66619;SDS011;53484;51.356;6.732;2022-11-14T08:22:19;18.73;;;9.23;;
66619;SDS011;53484;51.356;6.732;2022-11-14T08:24:46;22.35;;;11.00;;
66619;SDS011;53484;51.356;6.732;2022-11-14T08:27:12;20.65;;;10.43;;
66619;SDS011;53484;51.356;6.732;2022-11-14T08:29:38;21.70;;;10.05;;
66619;SDS011;53484;51.356;6.732;2022-11-14T08:32:05;22.17;;;10.65;;
66619;SDS011;53484;51.356;6.732;2022-11-14T08:34:31;24.43;;;11.13;;
66619;SDS011;53484;51.356;6.732;2022-11-14T08:36:59;22.42;;;10.85;;
66619;SDS011;53484;51.356;6.732;2022-11-14T08:39:26;23.02;;;11.63;;
66619;SDS011;53484;51.356;6.732;2022-11-14T08:41:52;24.52;;;11.50;;
66619;SDS011;53484;51.356;6.732;2022-11-14T08:44:19;22.60;;;11.30;;
66619;SDS011;53484;51.356;6.732;2022-11-14T08:46:45;23.87;;;11.37;;
66619;SDS011;53484;51.356;6.732;2022-11-14T08:49:11;24.33;;;11.95;;
66619;SDS011;53484;51.356;6.732;2022-11-14T08:51:38;26.08;;;12.25;;
66619;SDS011;53484;51.356;6.732;2022-11-14T08:54:05;28.75;;;11.60;;
66619;SDS011;53484;51.356;6.732;2022-11-14T08:56:32;28.02;;;12.07;;
66619;SDS011;53484;51.356;6.732;2022-11-14T08:58:58;27.37;;;12.10;;
66619;SDS011;53484;51.356;6.732;2022-11-14T09:01:27;25.27;;;11.30;;
66619;SDS011;53484;51.356;6.732;2022-11-14T09:03:53;23.52;;;10.63;;
66619;SDS011;53484;51.356;6.732;2022-11-14T09:06:20;23.92;;;11.23;;
66619;SDS011;53484;51.356;6.732;2022-11-14T09:08:46;24.00;;;12.07;;
66619;SDS011;53484;51.356;6.732;2022-11-14T09:11:14;28.73;;;12.87;;
66619;SDS011;53484;51.356;6.732;2022-11-14T09:13:40;28.10;;;11.30;;
66619;SDS011;53484;51.356;6.732;2022-11-14T09:16:06;27.50;;;11.48;;
66619;SDS011;53484;51.356;6.732;2022-11-14T09:18:33;26.10;;;11.93;;
66619;SDS011;53484;51.356;6.732;2022-11-14T09:20:59;25.80;;;12.20;;
66619;SDS011;53484;51.356;6.732;2022-11-14T09:23:26;28.00;;;12.40;;
66619;SDS011;53484;51.356;6.732;2022-11-14T09:25:52;24.55;;;11.73;;
66619;SDS011;53484;51.356;6.732;2022-11-14T09:28:22;26.40;;;12.73;;
66619;SDS011;53484;51.356;6.732;2022-11-14T09:30:49;29.15;;;11.77;;
66619;SDS011;53484;51.356;6.732;2022-11-14T09:33:15;26.27;;;11.30;;
66619;SDS011;53484;51.356;6.732;2022-11-14T09:35:41;27.00;;;11.57;;
66619;SDS011;53484;51.356;6.732;2022-11-14T09:38:09;30.60;;;12.63;;
66619;SDS011;53484;51.356;6.732;2022-11-14T09:40:40;27.13;;;12.63;;
66619;SDS011;53484;51.356;6.732;2022-11-14T09:43:27;26.20;;;11.98;;
66619;SDS011;53484;51.356;6.732;2022-11-14T09:45:59;30.48;;;13.05;;
66619;SDS011;53484;51.356;6.732;2022-11-14T09:48:26;25.30;;;11.57;;
66619;SDS011;53484;51.356;6.732;2022-11-14T09:50:58;25.30;;;12.02;;
66619;SDS011;53484;51.356;6.732;2022-11-14T09:53:28;23.92;;;11.65;;
66619;SDS011;53484;51.356;6.732;2022-11-14T09:55:56;26.73;;;12.15;;
66619;SDS011;53484;51.356;6.732;2022-11-14T09:58:24;30.58;;;12.85;;
66619;SDS011;53484;51.356;6.732;2022-11-14T10:00:53;26.80;;;12.10;;
66619;SDS011;53484;51.356;6.732;2022-11-14T10:03:22;23.38;;;11.10;;
66619;SDS011;53484;51.356;6.732;2022-11-14T10:05:55;28.27;;;12.20;;
66619;SDS011;53484;51.356;6.732;2022-11-14T10:08:32;27.02;;;11.75;;
66619;SDS011;53484;51.356;6.732;2022-11-14T10:11:03;27.92;;;11.93;;
66619;SDS011;53484;51.356;6.732;2022-11-14T10:16:22;24.67;;;11.43;;
66619;SDS011;53484;51.356;6.732;2022-11-14T10:19:02;23.98;;;11.05;;
66619;SDS011;53484;51.356;6.732;2022-11-14T10:24:25;21.75;;;10.07;;
66619;SDS011;53484;51.356;6.732;2022-11-14T10:26:58;21.07;;;9.63;;
66619;SDS011;53484;51.356;6.732;2022-11-14T10:29:39;18.75;;;8.73;;
66619;SDS011;53484;51.356;6.732;2022-11-14T10:32:13;22.05;;;9.20;;
66619;SDS011;53484;51.356;6.732;2022-11-14T10:34:44;21.10;;;9.40;;
66619;SDS011;53484;51.356;6.732;2022-11-14T10:37:14;16.48;;;7.95;;
66619;SDS011;53484;51.356;6.732;2022-11-14T10:39:44;19.20;;;8.30;;
66619;SDS011;53484;51.356;6.732;2022-11-14T10:42:13;16.40;;;8.35;;
66619;SDS011;53484;51.356;6.732;2022-11-14T10:44:41;15.45;;;7.82;;
66619;SDS011;53484;51.356;6.732;2022-11-14T10:47:16;16.50;;;7.78;;
66619;SDS011;53484;51.356;6.732;2022-11-14T10:49:43;15.48;;;7.28;;
66619;SDS011;53484;51.356;6.732;2022-11-14T10:52:12;13.70;;;7.37;;
66619;SDS011;53484;51.356;6.732;2022-11-14T10:54:40;14.48;;;6.90;;
66619;SDS011;53484;51.356;6.732;2022-11-14T10:57:14;13.90;;;7.10;;
66619;SDS011;53484;51.356;6.732;2022-11-14T10:59:40;15.18;;;7.00;;
66619;SDS011;53484;51.356;6.732;2022-11-14T11:02:07;13.93;;;6.75;;
66619;SDS011;53484;51.356;6.732;2022-11-14T11:04:35;12.80;;;6.27;;
66619;SDS011;53484;51.356;6.732;2022-11-14T11:07:16;12.35;;;6.10;;
66619;SDS011;53484;51.356;6.732;2022-11-14T11:09:58;13.57;;;6.57;;
66619;SDS011;53484;51.356;6.732;2022-11-14T11:12:42;13.57;;;6.72;;
66619;SDS011;53484;51.356;6.732;2022-11-14T11:15:12;12.68;;;6.57;;
66619;SDS011;53484;51.356;6.732;2022-11-14T11:17:41;15.97;;;7.43;;
66619;SDS011;53484;51.356;6.732;2022-11-14T11:20:24;16.20;;;7.78;;
66619;SDS011;53484;51.356;6.732;2022-11-14T11:22:56;16.15;;;8.00;;
66619;SDS011;53484;51.356;6.732;2022-11-14T11:25:27;15.10;;;7.50;;
66619;SDS011;53484;51.356;6.732;2022-11-14T11:28:02;16.33;;;8.05;;
66619;SDS011;53484;51.356;6.732;2022-11-14T11:30:28;14.67;;;7.40;;
66619;SDS011;53484;51.356;6.732;2022-11-14T11:32:55;16.20;;;8.07;;
66619;SDS011;53484;51.356;6.732;2022-11-14T11:35:21;16.05;;;8.50;;
66619;SDS011;53484;51.356;6.732;2022-11-14T11:37:50;16.13;;;7.95;;
66619;SDS011;53484;51.356;6.732;2022-11-14T11:40:19;15.23;;;8.20;;
66619;SDS011;53484;51.356;6.732;2022-11-14T11:42:48;17.50;;;8.80;;
66619;SDS011;53484;51.356;6.732;2022-11-14T11:45:17;15.30;;;8.88;;
66619;SDS011;53484;51.356;6.732;2022-11-14T11:47:45;15.30;;;8.30;;
66619;SDS011;53484;51.356;6.732;2022-11-14T11:50:15;17.83;;;8.43;;
66619;SDS011;53484;51.356;6.732;2022-11-14T11:52:44;14.88;;;7.85;;
66619;SDS011;53484;51.356;6.732;2022-11-14T11:55:15;18.23;;;9.03;;
66619;SDS011;53484;51.356;6.732;2022-11-14T11:57:43;16.42;;;8.32;;
66619;SDS011;53484;51.356;6.732;2022-11-14T12:00:14;16.27;;;8.80;;
66619;SDS011;53484;51.356;6.732;2022-11-14T12:02:41;17.40;;;8.75;;
66619;SDS011;53484;51.356;6.732;2022-11-14T12:05:12;16.00;;;9.07;;
66619;SDS011;53484;51.356;6.732;2022-11-14T12:07:40;19.70;;;9.67;;
66619;SDS011;53484;51.356;6.732;2022-11-14T12:10:11;17.23;;;9.23;;
66619;SDS011;53484;51.356;6.732;2022-11-14T12:12:47;18.33;;;8.85;;
66619;SDS011;53484;51.356;6.732;2022-11-14T12:15:17;16.42;;;8.70;;
66619;SDS011;53484;51.356;6.732;2022-11-14T12:18:13;15.65;;;8.32;;
66619;SDS011;53484;51.356;6.732;2022-11-14T12:20:50;16.43;;;9.13;;
66619;SDS011;53484;51.356;6.732;2022-11-14T12:26:19;18.60;;;9.65;;
66619;SDS011;53484;51.356;6.732;2022-11-14T12:28:53;17.45;;;9.10;;
66619;SDS011;53484;51.356;6.732;2022-11-14T12:31:23;18.40;;;9.73;;
66619;SDS011;53484;51.356;6.732;2022-11-14T12:33:52;18.13;;;9.50;;
66619;SDS011;53484;51.356;6.732;2022-11-14T12:36:18;17.88;;;9.60;;
66619;SDS011;53484;51.356;6.732;2022-11-14T12:38:45;20.50;;;10.05;;
66619;SDS011;53484;51.356;6.732;2022-11-14T12:41:15;18.35;;;9.48;;
66619;SDS011;53484;51.356;6.732;2022-11-14T12:43:45;18.52;;;9.45;;
66619;SDS011;53484;51.356;6.732;2022-11-14T12:46:13;17.53;;;9.20;;
66619;SDS011;53484;51.356;6.732;2022-11-14T12:48:39;18.90;;;9.07;;
66619;SDS011;53484;51.356;6.732;2022-11-14T12:53:47;19.15;;;10.18;;
66619;SDS011;53484;51.356;6.732;2022-11-14T12:59:05;17.67;;;9.63;;
66619;SDS011;53484;51.356;6.732;2022-11-14T13:01:40;23.23;;;10.43;;
66619;SDS011;53484;51.356;6.732;2022-11-14T13:04:15;21.13;;;9.98;;
66619;SDS011;53484;51.356;6.732;2022-11-14T13:06:44;17.58;;;9.43;;
66619;SDS011;53484;51.356;6.732;2022-11-14T13:09:27;20.02;;;9.60;;
66619;SDS011;53484;51.356;6.732;2022-11-14T13:11:56;18.07;;;9.47;;
66619;SDS011;53484;51.356;6.732;2022-11-14T13:14:49;18.08;;;8.80;;
66619;SDS011;53484;51.356;6.732;2022-11-14T13:17:35;20.85;;;9.43;;
66619;SDS011;53484;51.356;6.732;2022-11-14T13:20:27;16.75;;;8.75;;
66619;SDS011;53484;51.356;6.732;2022-11-14T13:28:45;17.65;;;8.55;;
66619;SDS011;53484;51.356;6.732;2022-11-14T13:31:18;17.50;;;8.63;;
66619;SDS011;53484;51.356;6.732;2022-11-14T13:33:46;17.92;;;8.95;;
66619;SDS011;53484;51.356;6.732;2022-11-14T13:36:15;19.85;;;9.32;;
66619;SDS011;53484;51.356;6.732;2022-11-14T13:38:58;17.73;;;8.80;;
66619;SDS011;53484;51.356;6.732;2022-11-14T13:41:32;19.02;;;9.00;;
66619;SDS011;53484;51.356;6.732;2022-11-14T13:44:08;18.50;;;9.43;;
66619;SDS011;53484;51.356;6.732;2022-11-14T13:46:50;16.45;;;9.02;;
66619;SDS011;53484;51.356;6.732;2022-11-14T13:49:27;19.33;;;8.95;;
66619;SDS011;53484;51.356;6.732;2022-11-14T13:51:54;23.47;;;10.67;;
66619;SDS011;53484;51.356;6.732;2022-11-14T13:54:21;21.08;;;9.60;;
66619;SDS011;53484;51.356;6.732;2022-11-14T13:56:51;22.80;;;10.65;;
66619;SDS011;53484;51.356;6.732;2022-11-14T13:59:25;23.02;;;10.95;;
66619;SDS011;53484;51.356;6.732;2022-11-14T14:02:03;22.52;;;10.52;;
66619;SDS011;53484;51.356;6.732;2022-11-14T14:04:38;22.43;;;10.17;;
66619;SDS011;53484;51.356;6.732;2022-11-14T14:07:06;25.33;;;12.02;;
66619;SDS011;53484;51.356;6.732;2022-11-14T14:09:36;22.23;;;10.73;;
66619;SDS011;53484;51.356;6.732;2022-11-14T14:12:13;21.05;;;10.45;;
66619;SDS011;53484;51.356;6.732;2022-11-14T14:14:44;25.27;;;11.75;;
66619;SDS011;53484;51.356;6.732;2022-11-14T14:17:14;21.90;;;10.67;;
66619;SDS011;53484;51.356;6.732;2022-11-14T14:19:55;22.52;;;10.55;;
66619;SDS011;53484;51.356;6.732;2022-11-14T14:22:25;22.48;;;11.00;;
66619;SDS011;53484;51.356;6.732;2022-11-14T14:24:55;19.33;;;10.50;;
66619;SDS011;53484;51.356;6.732;2022-11-14T14:27:24;22.08;;;10.73;;
66619;SDS011;53484;51.356;6.732;2022-11-14T14:29:55;28.83;;;10.87;;
66619;SDS011;53484;51.356;6.732;2022-11-14T14:32:23;22.90;;;11.25;;
66619;SDS011;53484;51.356;6.732;2022-11-14T14:34:50;20.77;;;10.38;;
66619;SDS011;53484;51.356;6.732;2022-11-14T14:37:21;23.75;;;11.05;;
66619;SDS011;53484;51.356;6.732;2022-11-14T14:39:54;21.02;;;10.38;;
66619;SDS011;53484;51.356;6.732;2022-11-14T14:42:21;22.40;;;10.70;;
66619;SDS011;53484;51.356;6.732;2022-11-14T14:44:47;20.73;;;10.32;;
66619;SDS011;53484;51.356;6.732;2022-11-14T14:47:14;20.25;;;10.32;;
66619;SDS011;53484;51.356;6.732;2022-11-14T14:49:41;21.05;;;10.95;;
66619;SDS011;53484;51.356;6.732;2022-11-14T14:52:19;22.63;;;11.02;;
66619;SDS011;53484;51.356;6.732;2022-11-14T14:54:52;23.90;;;10.70;;
66619;SDS011;53484;51.356;6.732;2022-11-14T14:57:18;24.38;;;11.65;;
66619;SDS011;53484;51.356;6.732;2022-11-14T14:59:45;21.48;;;10.32;;